createdAt,value
2022-11-28T00:01:17.920Z,93939.63
2022-11-28T00:03:45.545Z,93942.34
2022-11-28T00:06:13.315Z,93942.59
2022-11-28T00:08:40.964Z,93936.09
2022-11-28T00:11:09.502Z,93934.44
2022-11-28T00:13:37.591Z,93929.03
2022-11-28T00:16:06.867Z,93929.03
2022-11-28T00:18:35.881Z,93916.53
2022-11-28T00:21:03.950Z,93914.66
2022-11-28T00:23:31.908Z,93917.38
2022-11-28T00:25:59.516Z,93914.66
2022-11-28T00:28:27.153Z,93919.25
2022-11-28T00:30:54.773Z,93907.59
2022-11-28T00:33:22.415Z,93893.19
2022-11-28T00:35:51.355Z,93893.19
2022-11-28T00:38:18.970Z,93883.16
2022-11-28T00:40:46.577Z,93890.47
2022-11-28T00:43:14.219Z,93905.97
2022-11-28T00:45:41.914Z,93911.41
2022-11-28T00:48:09.537Z,93907.06
2022-11-28T00:50:37.188Z,93892.41
2022-11-28T00:53:06.187Z,93878.00
2022-11-28T00:55:33.852Z,93872.88
2022-11-28T00:58:01.477Z,93868.22
2022-11-28T01:00:29.141Z,93864.72
2022-11-28T01:02:56.753Z,93866.59
2022-11-28T01:05:24.408Z,93875.84
2022-11-28T01:07:52.059Z,93882.91
2022-11-28T01:10:22.070Z,93882.09
2022-11-28T01:12:49.662Z,93898.41
2022-11-28T01:15:17.245Z,93898.41
2022-11-28T01:17:44.812Z,93890.25
2022-11-28T01:20:13.526Z,93892.97
2022-11-28T01:22:41.108Z,93885.88
2022-11-28T01:25:08.956Z,93874.22
2022-11-28T01:27:37.912Z,93874.22
2022-11-28T01:30:06.835Z,93878.03
2022-11-28T01:32:34.407Z,93882.38
2022-11-28T01:35:01.963Z,93875.31
2022-11-28T01:37:30.152Z,93883.72
2022-11-28T01:39:57.739Z,93893.50
2022-11-28T01:42:25.460Z,93887.28
2022-11-28T01:45:12.454Z,93887.28
2022-11-28T01:47:40.036Z,93873.97
2022-11-28T01:50:08.752Z,93874.78
2022-11-28T01:52:37.520Z,93870.44
2022-11-28T01:55:05.566Z,93852.25
2022-11-28T01:57:33.107Z,93852.25
2022-11-28T02:00:05.459Z,93836.25
2022-11-28T02:02:34.828Z,93843.31
2022-11-28T02:05:02.664Z,93848.72
2022-11-28T02:07:30.328Z,93856.31
2022-11-28T02:09:57.991Z,93852.53
2022-11-28T02:12:36.184Z,93835.69
2022-11-28T02:15:23.818Z,93842.75
2022-11-28T02:18:02.129Z,93824.84
2022-11-28T02:20:40.255Z,93823.75
2022-11-28T02:23:10.375Z,93828.38
2022-11-28T02:26:03.304Z,93838.41
2022-11-28T02:28:43.323Z,93819.41
2022-11-28T02:31:18.946Z,93822.41
2022-11-28T02:33:48.611Z,93822.13
2022-11-28T02:36:16.858Z,93815.38
2022-11-28T02:38:52.674Z,93804.50
2022-11-28T02:41:23.435Z,93803.41
2022-11-28T02:43:54.389Z,93820.81
2022-11-28T02:46:24.271Z,93835.16
2022-11-28T02:48:54.292Z,93835.47
2022-11-28T02:51:24.632Z,93816.16
2022-11-28T02:53:52.211Z,93808.31
2022-11-28T02:56:19.784Z,93799.34
2022-11-28T02:58:47.405Z,93799.09
2022-11-28T03:01:18.263Z,93785.78
2022-11-28T03:04:22.304Z,93782.25
2022-11-28T03:06:58.265Z,93776.53
2022-11-28T03:09:34.885Z,93769.50
2022-11-28T03:12:07.659Z,93766.78
2022-11-28T03:14:40.317Z,93757.84
2022-11-28T03:17:12.446Z,93757.00
2022-11-28T03:19:43.214Z,93750.75
2022-11-28T03:22:12.843Z,93748.03
2022-11-28T03:24:42.990Z,93751.56
2022-11-28T03:27:14.328Z,93743.44
2022-11-28T03:29:44.464Z,93739.91
2022-11-28T03:32:13.369Z,93732.56
2022-11-28T03:34:44.632Z,93706.53
2022-11-28T03:37:13.876Z,93691.03
2022-11-28T03:39:44.173Z,93684.81
2022-11-28T03:42:12.497Z,93684.81
2022-11-28T03:44:46.505Z,93691.03
2022-11-28T03:47:14.115Z,93702.19
2022-11-28T03:49:43.860Z,93721.19
2022-11-28T03:52:14.477Z,93698.66
2022-11-28T03:54:44.385Z,93708.72
2022-11-28T03:57:14.161Z,93751.31
2022-11-28T03:59:43.012Z,93797.19
2022-11-28T04:02:15.471Z,93773.88
2022-11-28T04:04:50.891Z,93806.44
2022-11-28T04:07:23.220Z,93741.28
2022-11-28T04:09:51.914Z,93800.19
2022-11-28T04:12:21.751Z,93768.44
2022-11-28T04:14:51.528Z,93762.19
2022-11-28T04:17:20.356Z,93785.81
2022-11-28T04:19:50.838Z,93769.53
2022-11-28T04:22:19.839Z,93770.63
2022-11-28T04:24:49.500Z,93793.13
2022-11-28T04:27:18.844Z,93774.13
2022-11-28T04:29:47.734Z,93790.44
2022-11-28T04:32:15.505Z,93793.97
2022-11-28T04:34:45.128Z,93792.34
2022-11-28T04:37:15.167Z,93804.00
2022-11-28T04:39:43.429Z,93794.22
2022-11-28T04:42:12.680Z,93796.16
2022-11-28T04:44:42.483Z,93804.28
2022-11-28T04:47:10.826Z,93790.72
2022-11-28T04:49:38.539Z,93793.13
2022-11-28T04:52:08.095Z,93802.38
2022-11-28T04:54:39.582Z,93795.31
2022-11-28T04:57:12.921Z,93793.44
2022-11-28T04:59:40.549Z,93784.47
2022-11-28T05:02:08.183Z,93778.22
2022-11-28T05:04:36.007Z,93774.44
2022-11-28T05:07:03.818Z,93757.31
2022-11-28T05:09:31.500Z,93754.59
2022-11-28T05:12:00.516Z,93746.47
2022-11-28T05:14:28.151Z,93743.75
2022-11-28T05:16:55.923Z,93736.44
2022-11-28T05:19:23.600Z,93744.56
2022-11-28T05:21:53.116Z,93731.00
2022-11-28T05:24:22.367Z,93728.28
2022-11-28T05:26:50.331Z,93730.19
2022-11-28T05:29:19.338Z,93718.50
2022-11-28T05:31:46.975Z,93713.06
2022-11-28T05:34:14.606Z,93725.84
2022-11-28T05:36:42.272Z,93738.31
2022-11-28T05:39:09.896Z,93734.78
2022-11-28T05:41:37.551Z,93740.22
2022-11-28T05:44:05.331Z,93727.75
2022-11-28T05:46:34.315Z,93730.44
2022-11-28T05:49:01.978Z,93717.97
2022-11-28T05:51:29.616Z,93701.69
2022-11-28T05:53:57.249Z,93696.56
2022-11-28T05:56:24.951Z,93722.88
2022-11-28T05:58:53.257Z,93708.22
2022-11-28T06:01:21.855Z,93709.31
2022-11-28T06:03:51.909Z,93725.59
2022-11-28T06:06:21.252Z,93719.06
2022-11-28T06:08:49.981Z,93690.31
2022-11-28T06:11:17.564Z,93710.94
2022-11-28T06:13:45.306Z,93716.66
2022-11-28T06:16:13.698Z,93712.03
2022-11-28T06:18:41.513Z,93693.03
2022-11-28T06:21:11.154Z,93696.84
2022-11-28T06:23:38.728Z,93710.13
2022-11-28T06:26:07.499Z,93715.56
2022-11-28T06:28:35.199Z,93727.22
2022-11-28T06:31:03.133Z,93734.84
2022-11-28T06:33:30.752Z,93739.16
2022-11-28T06:36:00.474Z,93738.38
2022-11-28T06:38:29.549Z,93745.41
2022-11-28T06:40:58.620Z,93746.22
2022-11-28T06:43:26.536Z,93740.00
2022-11-28T06:45:54.339Z,93727.22
2022-11-28T06:48:22.235Z,93734.56
2022-11-28T06:50:49.917Z,93729.94
2022-11-28T06:53:17.563Z,93720.69
2022-11-28T06:55:46.532Z,93726.13
2022-11-28T06:58:14.569Z,93728.84
2022-11-28T07:00:42.202Z,93719.91
2022-11-28T07:03:09.878Z,93714.47
2022-11-28T07:05:37.546Z,93707.13
2022-11-28T07:08:05.464Z,93699.28
2022-11-28T07:10:33.195Z,93715.25
2022-11-28T07:13:05.380Z,93709.84
2022-11-28T07:15:33.306Z,93709.03
2022-11-28T07:18:01.603Z,93701.69
2022-11-28T07:20:29.284Z,93700.06
2022-11-28T07:22:56.964Z,93698.97
2022-11-28T07:25:24.547Z,93706.03
2022-11-28T07:27:52.109Z,93707.13
2022-11-28T07:30:21.297Z,93715.25
2022-11-28T07:32:48.920Z,93715.25
2022-11-28T07:35:16.666Z,93716.09
2022-11-28T07:37:44.312Z,93721.78
2022-11-28T07:40:13.437Z,93709.84
2022-11-28T07:42:41.107Z,93708.22
2022-11-28T07:45:09.883Z,93700.91
2022-11-28T07:47:39.382Z,93698.97
2022-11-28T07:50:08.144Z,93700.91
2022-11-28T07:52:35.740Z,93706.31
2022-11-28T07:55:03.433Z,93696.56
2022-11-28T07:57:31.560Z,93695.47
2022-11-28T07:59:59.225Z,93696.25
2022-11-28T08:02:27.977Z,93700.91
2022-11-28T08:04:58.184Z,93706.03
2022-11-28T08:07:25.896Z,93700.91
2022-11-28T08:09:53.637Z,93698.97
2022-11-28T08:12:21.335Z,93691.94
2022-11-28T08:14:48.935Z,93692.75
2022-11-28T08:17:16.573Z,93692.75
2022-11-28T08:19:44.193Z,93698.19
2022-11-28T08:22:13.262Z,93698.19
2022-11-28T08:24:41.276Z,93696.25
2022-11-28T08:27:09.195Z,93707.41
2022-11-28T08:29:37.111Z,93707.41
2022-11-28T08:32:05.065Z,93710.13
2022-11-28T08:34:32.643Z,93720.16
2022-11-28T08:37:00.596Z,93724.50
2022-11-28T08:39:29.634Z,93714.75
2022-11-28T08:41:58.784Z,93716.34
2022-11-28T08:44:26.551Z,93716.66
2022-11-28T08:46:54.149Z,93714.75
2022-11-28T08:49:21.746Z,93717.44
2022-11-28T08:51:49.391Z,93716.66
2022-11-28T08:54:16.934Z,93712.03
2022-11-28T08:56:47.793Z,93716.66
2022-11-28T08:59:15.341Z,93715.03
2022-11-28T09:01:43.047Z,93719.66
2022-11-28T09:04:10.835Z,93724.25
2022-11-28T09:06:39.731Z,93716.09
2022-11-28T09:09:09.004Z,93717.19
2022-11-28T09:11:36.603Z,93726.97
2022-11-28T09:14:05.720Z,93718.03
2022-11-28T09:16:33.291Z,93721.84
2022-11-28T09:19:01.075Z,93721.53
2022-11-28T09:21:28.685Z,93717.19
2022-11-28T09:23:57.019Z,93716.41
2022-11-28T09:26:25.217Z,93712.88
2022-11-28T09:28:52.983Z,93712.88
2022-11-28T09:31:22.085Z,93715.56
2022-11-28T09:33:49.971Z,93719.91
2022-11-28T09:36:18.684Z,93722.63
2022-11-28T09:38:46.337Z,93712.88
2022-11-28T09:41:39.028Z,93719.38
2022-11-28T09:44:09.992Z,93717.50
2022-11-28T09:46:38.994Z,93722.94
2022-11-28T09:49:15.345Z,93722.94
2022-11-28T09:51:45.743Z,93728.34
2022-11-28T09:54:16.301Z,93727.25
2022-11-28T09:56:44.164Z,93732.69
2022-11-28T09:59:16.797Z,93728.88
2022-11-28T10:01:48.000Z,93730.78
2022-11-28T10:04:17.948Z,93721.00
2022-11-28T10:06:47.080Z,93716.41
2022-11-28T10:09:25.769Z,93721.00
2022-11-28T10:12:01.741Z,93726.44
2022-11-28T10:14:55.735Z,93726.44
2022-11-28T10:17:32.533Z,93723.72
2022-11-28T10:20:02.540Z,93723.72
2022-11-28T10:22:35.140Z,93726.44
2022-11-28T10:25:06.792Z,93726.44
2022-11-28T10:27:35.527Z,93717.50
2022-11-28T10:30:05.152Z,93722.09
2022-11-28T10:32:35.610Z,93714.78
2022-11-28T10:35:05.216Z,93715.56
2022-11-28T10:37:33.920Z,93715.56
2022-11-28T10:40:06.880Z,93714.78
2022-11-28T10:42:36.504Z,93711.25
2022-11-28T10:45:12.862Z,93713.69
2022-11-28T10:47:51.923Z,93713.97
2022-11-28T10:50:22.756Z,93720.22
2022-11-28T10:52:52.620Z,93721.00
2022-11-28T10:55:25.644Z,93715.56
2022-11-28T10:57:57.267Z,93712.06
2022-11-28T11:00:25.030Z,93721.00
2022-11-28T11:02:54.998Z,93717.19
2022-11-28T11:05:25.385Z,93719.13
2022-11-28T11:07:53.718Z,93712.06
2022-11-28T11:10:23.262Z,93712.88
2022-11-28T11:12:51.169Z,93704.44
2022-11-28T11:15:21.424Z,93709.88
2022-11-28T11:17:50.377Z,93702.53
2022-11-28T11:20:36.993Z,93706.59
2022-11-28T11:23:13.675Z,93712.03
2022-11-28T11:25:47.425Z,93711.44
2022-11-28T11:28:27.351Z,93700.59
2022-11-28T11:30:59.889Z,93700.31
2022-11-28T11:33:28.570Z,93696.78
2022-11-28T11:35:57.516Z,93695.72
2022-11-28T11:38:33.515Z,93700.31
2022-11-28T11:41:21.898Z,93691.66
2022-11-28T11:43:49.509Z,93699.28
2022-11-28T11:46:17.232Z,93699.28
2022-11-28T11:48:45.790Z,93695.75
2022-11-28T11:51:24.524Z,93698.44
2022-11-28T11:54:03.382Z,93707.41
2022-11-28T11:56:32.225Z,93697.66
2022-11-28T11:58:59.850Z,93695.75
2022-11-28T12:01:27.500Z,93692.22
2022-11-28T12:03:57.852Z,93703.09
2022-11-28T12:06:29.308Z,93691.13
2022-11-28T12:09:04.858Z,93698.44
2022-11-28T12:11:35.016Z,93694.13
2022-11-28T12:14:05.925Z,93690.31
2022-11-28T12:16:41.160Z,93692.22
2022-11-28T12:19:15.216Z,93691.41
2022-11-28T12:21:48.549Z,93694.13
2022-11-28T12:24:17.486Z,93688.69
2022-11-28T12:26:47.084Z,93685.97
2022-11-28T12:29:22.882Z,93688.97
2022-11-28T12:31:52.704Z,93683.25
2022-11-28T12:34:25.028Z,93681.66
2022-11-28T12:36:57.562Z,93687.91
2022-11-28T12:39:28.549Z,93673.50
2022-11-28T12:42:06.534Z,93674.31
2022-11-28T12:44:42.820Z,93676.22
2022-11-28T12:47:13.112Z,93671.63
2022-11-28T12:49:43.662Z,93683.25
2022-11-28T12:52:19.474Z,93677.84
2022-11-28T12:54:54.196Z,93684.09
2022-11-28T12:57:25.270Z,93677.03
2022-11-28T12:59:56.340Z,93683.25
2022-11-28T13:02:31.014Z,93673.50
2022-11-28T13:05:11.411Z,93679.75
2022-11-28T13:07:44.588Z,93674.31
2022-11-28T13:10:15.314Z,93676.22
2022-11-28T13:12:48.471Z,93675.13
2022-11-28T13:15:19.895Z,93671.63
2022-11-28T13:17:49.476Z,93666.97
2022-11-28T13:20:20.793Z,93671.63
2022-11-28T13:22:59.223Z,93666.97
2022-11-28T13:25:30.372Z,93669.16
2022-11-28T13:28:02.088Z,93665.34
2022-11-28T13:30:30.221Z,93672.41
2022-11-28T13:33:00.707Z,93671.63
2022-11-28T13:35:28.804Z,93664.25
2022-11-28T13:40:49.818Z,93660.75
2022-11-28T13:43:19.047Z,93659.94
2022-11-28T13:45:46.896Z,93665.34
2022-11-28T13:51:41.056Z,93661.81
2022-11-28T13:54:48.815Z,93659.09
2022-11-28T13:57:26.442Z,93663.75
2022-11-28T13:59:59.801Z,93661.03
2022-11-28T14:02:34.664Z,93661.03
2022-11-28T14:05:02.285Z,93662.66
2022-11-28T14:07:30.743Z,93664.53
2022-11-28T14:10:23.010Z,93664.53
2022-11-28T14:12:58.263Z,93669.16
2022-11-28T14:15:29.768Z,93664.84
2022-11-28T14:18:31.450Z,93658.31
2022-11-28T14:20:57.920Z,93664.53
2022-11-28T14:23:30.504Z,93665.63
2022-11-28T14:25:58.084Z,93662.13
2022-11-28T14:28:28.179Z,93662.13
2022-11-28T14:31:02.775Z,93660.50
2022-11-28T14:33:34.220Z,93665.94
2022-11-28T14:36:07.599Z,93665.94
2022-11-28T14:38:45.480Z,93659.69
2022-11-28T14:41:14.931Z,93662.41
2022-11-28T14:43:45.951Z,93657.69
2022-11-28T14:46:34.831Z,93667.91
2022-11-28T14:49:18.709Z,93662.44
2022-11-28T14:52:38.632Z,93665.09
2022-11-28T14:55:16.493Z,93664.47
2022-11-28T14:57:54.476Z,93672.59
2022-11-28T15:00:26.423Z,93669.59
2022-11-28T15:03:05.193Z,93666.59
2022-11-28T15:05:37.804Z,93669.84
2022-11-28T15:08:20.924Z,93666.88
2022-11-28T15:10:51.315Z,93668.47
2022-11-28T15:13:36.107Z,93660.34
2022-11-28T15:16:06.340Z,93657.34
2022-11-28T15:18:34.244Z,93653.59
2022-11-28T15:21:05.396Z,93653.59
2022-11-28T15:23:52.615Z,93650.56
2022-11-28T15:26:23.005Z,93655.19
2022-11-28T15:28:50.527Z,93658.72
2022-11-28T15:31:22.703Z,93653.00
2022-11-28T15:33:51.008Z,93658.44
2022-11-28T15:36:25.175Z,93655.41
2022-11-28T15:38:52.742Z,93659.22
2022-11-28T15:41:21.652Z,93661.16
2022-11-28T15:43:49.553Z,93657.34
2022-11-28T15:46:19.405Z,93657.59
2022-11-28T15:48:50.270Z,93653.00
2022-11-28T15:51:25.545Z,93656.53
2022-11-28T15:53:53.137Z,93654.63
2022-11-28T15:56:20.947Z,93654.34
2022-11-28T15:58:48.733Z,93651.66
2022-11-28T16:01:18.189Z,93655.41
2022-11-28T16:03:51.175Z,93652.44
2022-11-28T16:06:37.902Z,93655.16
2022-11-28T16:09:27.577Z,93648.63
2022-11-28T16:12:15.511Z,93647.53
2022-11-28T16:14:45.657Z,93645.13
2022-11-28T16:17:16.420Z,93646.75
2022-11-28T16:19:45.599Z,93656.78
2022-11-28T16:22:18.265Z,93654.06
2022-11-28T16:24:47.492Z,93654.09
2022-11-28T16:27:28.452Z,93654.66
2022-11-28T16:29:56.083Z,93642.44
2022-11-28T16:32:26.295Z,93653.16
2022-11-28T16:34:55.740Z,93650.13
2022-11-28T16:37:24.734Z,93641.41
2022-11-28T16:40:06.316Z,93640.84
2022-11-28T16:42:34.245Z,93637.03
2022-11-28T16:45:08.599Z,93651.16
2022-11-28T16:47:37.155Z,93643.81
2022-11-28T16:50:21.662Z,93653.56
2022-11-28T16:52:53.176Z,93648.16
2022-11-28T16:55:44.273Z,93651.69
2022-11-28T16:58:17.045Z,93653.28
2022-11-28T17:00:47.649Z,93640.25
2022-11-28T17:03:40.525Z,93651.91
2022-11-28T17:06:14.378Z,93645.34
2022-11-28T17:08:41.988Z,93643.41
2022-11-28T17:11:09.573Z,93640.66
2022-11-28T17:13:37.565Z,93639.22
2022-11-28T17:16:06.218Z,93646.53
2022-11-28T17:18:33.911Z,93647.25
2022-11-28T17:21:10.358Z,93640.72
2022-11-28T17:23:39.382Z,93642.00
2022-11-28T17:26:07.070Z,93638.13
2022-11-28T17:28:34.710Z,93648.69
2022-11-28T17:31:02.313Z,93650.56
2022-11-28T17:33:29.888Z,93652.94
2022-11-28T17:35:57.646Z,93651.50
2022-11-28T17:38:25.307Z,93650.13
2022-11-28T17:40:54.420Z,93653.59
2022-11-28T17:43:22.552Z,93654.38
2022-11-28T17:45:51.548Z,93653.50
2022-11-28T17:48:19.208Z,93656.44
2022-11-28T17:50:47.684Z,93652.88
2022-11-28T17:53:17.172Z,93655.81
2022-11-28T17:55:45.603Z,93656.84
2022-11-28T17:58:18.063Z,93657.09
2022-11-28T18:00:45.790Z,93662.22
2022-11-28T18:03:13.603Z,93663.56
2022-11-28T18:05:41.724Z,93655.41
2022-11-28T18:08:09.320Z,93656.75
2022-11-28T18:10:37.042Z,93656.16
2022-11-28T18:13:04.777Z,93653.94
2022-11-28T18:15:35.596Z,93649.84
2022-11-28T18:18:03.927Z,93649.53
2022-11-28T18:20:31.808Z,93654.69
2022-11-28T18:23:00.315Z,93650.59
2022-11-28T18:25:28.155Z,93654.94
2022-11-28T18:27:55.701Z,93647.28
2022-11-28T18:30:23.369Z,93651.63
2022-11-28T18:32:52.584Z,93648.63
2022-11-28T18:35:20.352Z,93643.69
2022-11-28T18:37:47.921Z,93652.66
2022-11-28T18:40:15.575Z,93653.97
2022-11-28T18:42:44.444Z,93652.09
2022-11-28T18:45:12.804Z,93651.50
2022-11-28T18:47:40.338Z,93652.00
2022-11-28T18:50:09.999Z,93650.09
2022-11-28T18:52:37.610Z,93643.84
2022-11-28T18:55:05.701Z,93649.28
2022-11-28T18:57:34.521Z,93644.94
2022-11-28T19:00:02.195Z,93644.13
2022-11-28T19:02:30.122Z,93640.63
2022-11-28T19:04:57.743Z,93639.00
2022-11-28T19:07:26.720Z,93647.16
2022-11-28T19:09:54.352Z,93653.91
2022-11-28T19:12:21.915Z,93651.50
2022-11-28T19:14:49.550Z,93653.91
2022-11-28T19:17:17.168Z,93650.09
2022-11-28T19:19:45.111Z,93650.63
2022-11-28T19:22:12.864Z,93645.97
2022-11-28T19:24:41.866Z,93655.25
2022-11-28T19:27:14.102Z,93656.34
2022-11-28T19:29:42.570Z,93652.81
2022-11-28T19:32:10.816Z,93658.56
2022-11-28T19:34:38.440Z,93648.78
2022-11-28T19:37:06.206Z,93653.91
2022-11-28T19:39:33.799Z,93655.81
2022-11-28T19:42:03.593Z,93653.09
2022-11-28T19:44:31.338Z,93654.22
2022-11-28T19:46:59.015Z,93656.09
2022-11-28T19:49:26.647Z,93653.09
2022-11-28T19:51:55.192Z,93657.44
2022-11-28T19:54:22.878Z,93659.06
2022-11-28T19:56:50.757Z,93650.91
2022-11-28T20:02:12.980Z,93669.66
2022-11-28T20:04:42.627Z,93663.41
2022-11-28T20:07:10.246Z,93666.63
2022-11-28T20:09:37.952Z,93664.22
2022-11-28T20:12:06.226Z,93664.22
2022-11-28T20:14:35.537Z,93662.00
2022-11-28T20:17:03.262Z,93672.91
2022-11-28T20:19:30.968Z,93672.59
2022-11-28T20:21:58.995Z,93672.59
2022-11-28T20:24:26.584Z,93675.31
2022-11-28T20:26:54.244Z,93677.22
2022-11-28T20:29:26.595Z,93684.28
2022-11-28T20:31:57.105Z,93685.09
2022-11-28T20:34:25.503Z,93690.25
2022-11-28T20:36:53.378Z,93686.41
2022-11-28T20:39:21.167Z,93687.53
2022-11-28T20:41:48.780Z,93691.84
2022-11-28T20:44:17.552Z,93682.91
2022-11-28T20:46:46.222Z,93677.97
2022-11-28T20:49:15.592Z,93683.41
2022-11-28T20:51:43.593Z,93675.31
2022-11-28T20:54:12.128Z,93690.00
2022-11-28T20:57:12.921Z,93692.81
2022-11-28T20:59:27.787Z,93693.41
2022-11-28T21:01:55.465Z,93690.16
2022-11-28T21:04:24.500Z,93692.94
2022-11-28T21:06:52.123Z,93691.06
2022-11-28T21:09:20.388Z,93693.28
2022-11-28T21:11:57.930Z,93686.00
2022-11-28T21:14:26.573Z,93694.72
2022-11-28T21:16:54.270Z,93692.88
2022-11-28T21:19:21.981Z,93694.28
2022-11-28T21:21:50.980Z,93690.22
2022-11-28T21:24:18.593Z,93692.72
2022-11-28T21:26:52.630Z,93694.91
2022-11-28T21:29:21.489Z,93688.13
2022-11-28T21:31:49.104Z,93681.38
2022-11-28T21:34:17.552Z,93687.09
2022-11-28T21:36:45.322Z,93693.13
2022-11-28T21:39:15.041Z,93692.59
2022-11-28T21:41:42.707Z,93688.56
2022-11-28T21:44:10.425Z,93691.84
2022-11-28T21:46:38.017Z,93689.41
2022-11-28T21:49:05.681Z,93688.88
2022-11-28T21:51:33.317Z,93691.88
2022-11-28T21:54:02.047Z,93692.16
2022-11-28T21:56:31.181Z,93690.81
2022-11-28T21:58:58.800Z,93695.72
2022-11-28T22:01:26.471Z,93698.72
2022-11-28T22:03:59.037Z,93690.88
2022-11-28T22:06:29.872Z,93694.69
2022-11-28T22:08:57.521Z,93694.97
2022-11-28T22:11:25.460Z,93691.72
2022-11-28T22:13:54.354Z,93693.94
2022-11-28T22:16:22.849Z,93691.50
2022-11-28T22:18:51.032Z,93689.06
2022-11-28T22:24:08.187Z,93699.41
2022-11-28T22:26:36.045Z,93699.69
2022-11-28T22:29:04.990Z,93701.91
2022-11-28T22:31:32.646Z,93701.06
2022-11-28T22:34:00.365Z,93704.06
2022-11-28T22:36:27.954Z,93698.94
2022-11-28T22:38:56.344Z,93711.69
2022-11-28T22:41:29.007Z,93703.84
2022-11-28T22:43:57.242Z,93703.84
2022-11-28T22:46:26.239Z,93702.22
2022-11-28T22:48:53.860Z,93706.31
2022-11-28T22:51:23.344Z,93704.41
2022-11-28T22:53:53.478Z,93708.22
2022-11-28T22:56:21.151Z,93703.09
2022-11-28T22:58:48.787Z,93696.81
2022-11-28T23:01:17.316Z,93704.19
2022-11-28T23:03:46.575Z,93695.22
2022-11-28T23:06:15.083Z,93703.63
2022-11-28T23:08:42.842Z,93695.47
2022-11-28T23:11:23.557Z,93699.28
2022-11-28T23:13:51.609Z,93695.78
2022-11-28T23:16:34.462Z,93693.06
2022-11-28T23:19:05.624Z,93704.19
2022-11-28T23:21:34.385Z,93694.16
2022-11-28T23:24:02.059Z,93699.59
2022-11-28T23:26:30.641Z,93699.06
2022-11-28T23:28:59.568Z,93697.47
2022-11-28T23:31:30.218Z,93694.75
2022-11-28T23:33:58.092Z,93702.06
2022-11-28T23:36:28.369Z,93699.34
2022-11-28T23:38:57.209Z,93697.72
2022-11-28T23:41:24.866Z,93700.44
2022-11-28T23:43:52.436Z,93693.41
2022-11-28T23:46:20.103Z,93698.00
2022-11-28T23:48:47.800Z,93693.41
2022-11-28T23:51:15.868Z,93704.53
2022-11-28T23:53:44.868Z,93699.09
2022-11-28T23:56:13.495Z,93695.59
2022-11-28T23:58:41.165Z,93699.41
